createdAt,value
2022-10-05T00:01:02.179Z,6.90
2022-10-05T00:03:48.730Z,6.88
2022-10-05T00:06:35.660Z,6.85
2022-10-05T00:09:22.134Z,6.82
2022-10-05T00:12:20.151Z,6.84
2022-10-05T00:15:11.961Z,6.74
2022-10-05T00:17:58.490Z,6.77
2022-10-05T00:20:46.136Z,6.75
2022-10-05T00:23:32.447Z,6.56
2022-10-05T00:26:22.887Z,6.67
2022-10-05T00:29:22.292Z,6.61
2022-10-05T00:32:10.470Z,6.56
2022-10-05T00:34:57.462Z,6.49
2022-10-05T00:37:45.334Z,6.47
2022-10-05T00:40:38.210Z,6.43
2022-10-05T00:44:07.648Z,6.44
2022-10-05T00:47:32.176Z,6.41
2022-10-05T00:50:43.459Z,6.40
2022-10-05T00:53:33.008Z,6.45
2022-10-05T00:56:33.437Z,6.38
2022-10-05T00:59:41.446Z,6.40
2022-10-05T01:02:41.318Z,6.28
2022-10-05T01:05:35.887Z,6.23
2022-10-05T01:08:50.244Z,6.15
2022-10-05T01:11:50.008Z,6.10
2022-10-05T01:14:46.291Z,6.07
2022-10-05T01:17:38.870Z,6.03
2022-10-05T01:20:41.250Z,6.04
2022-10-05T01:23:52.867Z,6.00
2022-10-05T01:26:58.053Z,5.97
2022-10-05T01:30:15.730Z,6.00
2022-10-05T01:33:16.738Z,5.89
2022-10-05T01:36:38.453Z,5.93
2022-10-05T01:39:52.442Z,6.00
2022-10-05T01:43:01.019Z,5.92
2022-10-05T01:46:06.347Z,5.93
2022-10-05T01:49:17.661Z,5.91
2022-10-05T01:52:19.144Z,5.89
2022-10-05T01:55:22.979Z,5.86
2022-10-05T01:58:29.994Z,5.93
2022-10-05T02:01:25.293Z,5.91
2022-10-05T02:05:00.443Z,5.97
2022-10-05T02:07:48.071Z,5.91
2022-10-05T02:10:47.134Z,5.87
2022-10-05T02:13:44.681Z,5.96
2022-10-05T02:16:37.230Z,5.91
2022-10-05T02:19:31.732Z,5.92
2022-10-05T02:22:33.895Z,5.86
2022-10-05T02:25:26.979Z,5.81
2022-10-05T02:28:24.995Z,5.86
2022-10-05T02:31:40.323Z,5.94
2022-10-05T02:34:37.579Z,6.07
2022-10-05T02:37:43.408Z,6.07
2022-10-05T02:40:48.167Z,6.10
2022-10-05T02:43:46.653Z,6.18
2022-10-05T02:46:56.034Z,6.17
2022-10-05T02:49:57.762Z,6.16
2022-10-05T02:53:06.306Z,6.17
2022-10-05T02:56:03.340Z,6.05
2022-10-05T02:59:19.130Z,6.04
2022-10-05T03:02:35.439Z,5.96
2022-10-05T03:05:30.779Z,6.01
2022-10-05T03:08:34.772Z,5.94
2022-10-05T03:11:35.770Z,5.82
2022-10-05T03:14:47.344Z,5.99
2022-10-05T03:17:53.246Z,5.76
2022-10-05T03:20:44.091Z,5.87
2022-10-05T03:23:59.563Z,5.93
2022-10-05T03:27:05.336Z,5.94
2022-10-05T03:30:23.709Z,5.86
2022-10-05T03:33:36.451Z,5.98
2022-10-05T03:36:31.301Z,5.97
2022-10-05T03:39:54.624Z,6.00
2022-10-05T03:43:03.185Z,5.99
2022-10-05T03:45:56.589Z,5.97
2022-10-05T03:49:07.138Z,5.95
2022-10-05T03:52:15.804Z,5.81
2022-10-05T03:55:15.706Z,5.71
2022-10-05T03:58:10.537Z,5.78
2022-10-05T04:01:02.415Z,5.84
2022-10-05T04:03:59.247Z,5.85
2022-10-05T04:06:49.351Z,5.91
2022-10-05T04:09:47.751Z,5.90
2022-10-05T04:12:40.174Z,6.05
2022-10-05T04:15:36.130Z,5.97
2022-10-05T04:18:39.537Z,6.02
2022-10-05T04:21:40.018Z,5.93
2022-10-05T04:24:35.434Z,5.85
2022-10-05T04:27:41.766Z,5.84
2022-10-05T04:30:32.542Z,5.76
2022-10-05T04:33:21.684Z,5.60
2022-10-05T04:36:20.297Z,5.63
2022-10-05T04:39:28.173Z,5.72
2022-10-05T04:42:24.358Z,5.86
2022-10-05T04:45:55.691Z,5.89
2022-10-05T04:49:04.894Z,5.68
2022-10-05T04:52:13.389Z,5.90
2022-10-05T04:55:28.420Z,5.82
2022-10-05T04:58:31.891Z,5.63
2022-10-05T05:01:48.811Z,5.75
2022-10-05T05:05:14.859Z,5.67
2022-10-05T05:08:25.076Z,5.75
2022-10-05T05:11:34.686Z,5.77
2022-10-05T05:14:31.113Z,5.73
2022-10-05T05:17:36.044Z,5.84
2022-10-05T05:21:04.387Z,5.81
2022-10-05T05:24:16.475Z,5.72
2022-10-05T05:27:21.328Z,5.77
2022-10-05T05:30:37.421Z,5.79
2022-10-05T05:33:42.257Z,5.65
2022-10-05T05:36:34.541Z,5.67
2022-10-05T05:39:41.767Z,5.64
2022-10-05T05:42:46.720Z,5.63
2022-10-05T05:45:41.607Z,5.62
2022-10-05T05:48:39.793Z,5.66
2022-10-05T05:51:37.315Z,5.64
2022-10-05T05:54:46.205Z,5.58
2022-10-05T05:57:41.335Z,5.62
2022-10-05T06:00:36.445Z,5.58
2022-10-05T06:03:30.176Z,5.72
2022-10-05T06:06:17.858Z,5.90
2022-10-05T06:09:14.340Z,5.85
2022-10-05T06:12:14.908Z,6.03
2022-10-05T06:15:28.435Z,6.00
2022-10-05T06:18:20.958Z,6.20
2022-10-05T06:21:46.478Z,6.25
2022-10-05T06:24:59.976Z,5.56
2022-10-05T06:28:24.806Z,6.45
2022-10-05T06:31:17.237Z,6.65
2022-10-05T06:34:46.867Z,6.75
2022-10-05T06:38:07.770Z,6.96
2022-10-05T06:41:18.661Z,7.05
2022-10-05T06:44:23.194Z,7.00
2022-10-05T06:47:44.022Z,7.00
2022-10-05T06:50:47.020Z,7.01
2022-10-05T06:54:15.574Z,7.15
2022-10-05T06:57:10.531Z,6.94
2022-10-05T07:00:02.441Z,7.07
2022-10-05T07:02:56.167Z,7.08
2022-10-05T07:05:54.242Z,7.13
2022-10-05T07:08:44.817Z,7.17
2022-10-05T07:11:57.301Z,7.34
2022-10-05T07:15:04.234Z,7.46
2022-10-05T07:18:09.367Z,7.48
2022-10-05T07:21:12.421Z,7.77
2022-10-05T07:24:02.445Z,7.71
2022-10-05T07:27:17.895Z,7.76
2022-10-05T07:30:12.352Z,7.75
2022-10-05T07:33:18.136Z,7.74
2022-10-05T07:36:37.355Z,7.72
2022-10-05T07:39:59.141Z,7.84
2022-10-05T07:42:59.830Z,7.86
2022-10-05T07:45:58.509Z,7.96
2022-10-05T07:48:48.031Z,8.16
2022-10-05T07:51:45.265Z,8.23
2022-10-05T07:54:45.086Z,8.29
2022-10-05T07:57:50.239Z,8.33
2022-10-05T08:01:12.993Z,8.42
2022-10-05T08:04:22.678Z,8.44
2022-10-05T08:07:15.787Z,8.39
2022-10-05T08:10:33.927Z,8.68
2022-10-05T08:13:27.445Z,8.84
2022-10-05T08:16:14.727Z,8.97
2022-10-05T08:19:22.053Z,9.22
2022-10-05T08:22:12.620Z,9.37
2022-10-05T08:25:05.655Z,9.43
2022-10-05T08:28:16.868Z,9.85
2022-10-05T08:31:21.996Z,9.97
2022-10-05T08:34:21.974Z,10.16
2022-10-05T08:37:22.223Z,10.41
2022-10-05T08:40:46.088Z,10.66
2022-10-05T08:43:57.449Z,10.83
2022-10-05T08:46:46.900Z,11.04
2022-10-05T08:49:42.563Z,11.22
2022-10-05T08:52:52.055Z,11.41
2022-10-05T08:55:57.379Z,11.58
2022-10-05T08:59:02.809Z,12.03
2022-10-05T09:02:43.954Z,12.18
2022-10-05T09:05:48.691Z,12.35
2022-10-05T09:08:51.262Z,12.49
2022-10-05T09:11:45.389Z,12.57
2022-10-05T09:15:24.938Z,12.94
2022-10-05T09:18:34.341Z,13.52
2022-10-05T09:21:44.891Z,13.58
2022-10-05T09:24:49.577Z,13.91
2022-10-05T09:27:49.372Z,13.97
2022-10-05T09:31:13.978Z,14.39
2022-10-05T09:34:16.055Z,14.41
2022-10-05T09:37:36.493Z,14.63
2022-10-05T09:40:42.390Z,14.90
2022-10-05T09:43:59.715Z,15.11
2022-10-05T09:47:11.118Z,15.40
2022-10-05T09:49:57.521Z,15.51
2022-10-05T09:53:13.166Z,15.48
2022-10-05T09:56:13.197Z,15.55
2022-10-05T09:59:30.332Z,15.67
2022-10-05T10:02:30.535Z,15.80
2022-10-05T10:05:41.530Z,15.91
2022-10-05T10:08:44.332Z,16.04
2022-10-05T10:11:56.882Z,16.24
2022-10-05T10:15:21.003Z,16.28
2022-10-05T10:18:22.557Z,16.44
2022-10-05T10:21:44.932Z,16.37
2022-10-05T10:24:53.338Z,16.46
2022-10-05T10:28:05.035Z,16.61
2022-10-05T10:31:24.573Z,16.67
2022-10-05T10:34:41.893Z,16.83
2022-10-05T10:37:58.533Z,17.07
2022-10-05T10:41:22.514Z,17.21
2022-10-05T10:44:54.090Z,17.34
2022-10-05T10:47:50.645Z,17.39
2022-10-05T10:50:45.277Z,17.20
2022-10-05T10:54:12.207Z,17.71
2022-10-05T10:57:11.792Z,17.69
2022-10-05T11:00:15.680Z,17.77
2022-10-05T11:03:11.421Z,17.90
2022-10-05T11:06:25.533Z,17.87
2022-10-05T11:09:39.366Z,18.06
2022-10-05T11:12:35.162Z,18.18
2022-10-05T11:15:47.247Z,18.20
2022-10-05T11:18:39.629Z,18.24
2022-10-05T11:21:36.629Z,18.30
2022-10-05T11:25:09.085Z,18.48
2022-10-05T11:27:58.421Z,18.64
2022-10-05T11:31:12.530Z,18.70
2022-10-05T11:34:07.971Z,18.92
2022-10-05T11:37:09.832Z,18.99
2022-10-05T11:40:33.316Z,19.14
2022-10-05T11:43:32.290Z,19.15
2022-10-05T11:46:37.326Z,19.27
2022-10-05T11:50:06.587Z,19.40
2022-10-05T11:52:58.789Z,19.43
2022-10-05T11:56:02.798Z,19.46
2022-10-05T11:58:49.329Z,19.59
2022-10-05T12:01:55.813Z,19.55
2022-10-05T12:05:19.029Z,19.70
2022-10-05T12:08:31.000Z,19.60
2022-10-05T12:11:45.509Z,19.83
2022-10-05T12:15:01.499Z,19.98
2022-10-05T12:18:04.630Z,20.09
2022-10-05T12:21:22.695Z,20.36
2022-10-05T12:24:21.238Z,20.47
2022-10-05T12:27:22.924Z,20.57
2022-10-05T12:30:26.648Z,20.59
2022-10-05T12:33:25.021Z,20.48
2022-10-05T12:36:17.739Z,20.59
2022-10-05T12:39:27.031Z,20.57
2022-10-05T12:42:41.739Z,20.78
2022-10-05T12:45:43.387Z,20.83
2022-10-05T12:48:45.289Z,21.07
2022-10-05T12:51:41.936Z,21.10
2022-10-05T12:54:48.315Z,21.20
2022-10-05T12:57:34.852Z,21.29
2022-10-05T13:00:23.193Z,21.44
2022-10-05T13:03:34.319Z,21.66
2022-10-05T13:06:41.901Z,21.60
2022-10-05T13:09:28.238Z,21.75
2022-10-05T13:12:26.939Z,22.00
2022-10-05T13:15:22.440Z,21.86
2022-10-05T13:18:30.645Z,22.04
2022-10-05T13:21:33.023Z,21.95
2022-10-05T13:24:36.500Z,22.08
2022-10-05T13:27:36.712Z,22.09
2022-10-05T13:30:23.461Z,22.02
2022-10-05T13:33:40.707Z,21.95
2022-10-05T13:36:36.009Z,21.90
2022-10-05T13:40:01.501Z,22.09
2022-10-05T13:42:59.646Z,22.17
2022-10-05T13:45:55.673Z,22.16
2022-10-05T13:48:55.529Z,22.17
2022-10-05T13:51:56.415Z,22.08
2022-10-05T13:54:49.845Z,22.10
2022-10-05T13:58:24.530Z,22.10
2022-10-05T14:01:19.175Z,21.92
2022-10-05T14:04:16.107Z,21.82
2022-10-05T14:07:23.921Z,21.60
2022-10-05T14:10:13.774Z,21.51
2022-10-05T14:13:02.401Z,21.31
2022-10-05T14:16:18.767Z,21.46
2022-10-05T14:19:04.911Z,21.38
2022-10-05T14:22:01.315Z,21.29
2022-10-05T14:25:07.820Z,21.26
2022-10-05T14:28:12.598Z,21.25
2022-10-05T14:31:02.194Z,21.17
2022-10-05T14:33:48.742Z,21.15
2022-10-05T14:36:40.163Z,21.09
2022-10-05T14:39:28.649Z,21.00
2022-10-05T14:42:21.351Z,21.04
2022-10-05T14:45:19.651Z,20.80
2022-10-05T14:48:11.522Z,20.68
2022-10-05T14:51:03.213Z,20.62
2022-10-05T14:54:14.860Z,20.47
2022-10-05T14:57:37.484Z,20.54
2022-10-05T15:00:24.321Z,20.34
2022-10-05T15:03:18.588Z,20.36
2022-10-05T15:06:10.086Z,20.34
2022-10-05T15:09:16.436Z,20.31
2022-10-05T15:12:04.142Z,20.26
2022-10-05T15:14:52.608Z,20.20
2022-10-05T15:17:44.797Z,20.24
2022-10-05T15:20:57.464Z,20.19
2022-10-05T15:23:52.904Z,20.16
2022-10-05T15:26:46.390Z,20.16
2022-10-05T15:29:57.728Z,20.20
2022-10-05T15:32:56.247Z,20.09
2022-10-05T15:36:21.286Z,20.01
2022-10-05T15:39:26.882Z,19.94
2022-10-05T15:42:19.545Z,19.83
2022-10-05T15:45:45.235Z,19.80
2022-10-05T15:48:48.411Z,19.72
2022-10-05T15:52:03.370Z,19.53
2022-10-05T15:55:08.312Z,19.53
2022-10-05T15:58:25.897Z,19.40
2022-10-05T16:01:47.227Z,19.30
2022-10-05T16:04:44.240Z,19.24
2022-10-05T16:08:00.701Z,19.13
2022-10-05T16:10:47.060Z,19.11
2022-10-05T16:13:49.667Z,19.09
2022-10-05T16:16:39.891Z,19.01
2022-10-05T16:19:46.107Z,18.89
2022-10-05T16:22:43.828Z,18.72
2022-10-05T16:26:02.717Z,18.59
2022-10-05T16:29:04.508Z,18.41
2022-10-05T16:32:00.179Z,18.26
2022-10-05T16:35:09.260Z,18.20
2022-10-05T16:38:34.093Z,18.08
2022-10-05T16:41:32.622Z,17.98
2022-10-05T16:44:37.598Z,17.79
2022-10-05T16:47:39.404Z,17.64
2022-10-05T16:50:39.501Z,17.49
2022-10-05T16:53:40.185Z,17.25
2022-10-05T16:56:52.537Z,17.10
2022-10-05T17:00:03.965Z,16.84
2022-10-05T17:03:13.793Z,16.70
2022-10-05T17:06:21.729Z,16.47
2022-10-05T17:09:23.208Z,16.37
2022-10-05T17:12:27.444Z,16.18
2022-10-05T17:15:29.702Z,16.10
2022-10-05T17:18:52.531Z,16.01
2022-10-05T17:22:03.783Z,15.84
2022-10-05T17:25:24.196Z,15.76
2022-10-05T17:28:24.630Z,15.47
2022-10-05T17:31:21.605Z,15.42
2022-10-05T17:34:17.838Z,15.26
2022-10-05T17:37:35.571Z,15.14
2022-10-05T17:40:31.166Z,14.99
2022-10-05T17:43:27.747Z,14.71
2022-10-05T17:46:44.795Z,14.78
2022-10-05T17:50:17.100Z,14.67
2022-10-05T17:53:54.825Z,14.65
2022-10-05T17:56:47.061Z,14.58
2022-10-05T17:59:38.648Z,14.54
2022-10-05T18:02:40.432Z,14.51
2022-10-05T18:05:30.882Z,14.50
2022-10-05T18:08:30.258Z,14.26
2022-10-05T18:11:40.311Z,14.24
2022-10-05T18:14:26.980Z,14.14
2022-10-05T18:17:13.870Z,14.02
2022-10-05T18:20:15.626Z,13.89
2022-10-05T18:23:09.390Z,13.80
2022-10-05T18:26:06.065Z,13.67
2022-10-05T18:29:37.851Z,13.57
2022-10-05T18:32:46.041Z,13.47
2022-10-05T18:35:48.130Z,13.42
2022-10-05T18:38:46.835Z,13.25
2022-10-05T18:42:00.837Z,13.12
2022-10-05T18:44:52.767Z,13.04
2022-10-05T18:48:16.935Z,12.95
2022-10-05T18:51:31.550Z,12.78
2022-10-05T18:54:36.666Z,12.81
2022-10-05T18:57:46.125Z,12.71
2022-10-05T19:00:58.824Z,12.56
2022-10-05T19:03:59.049Z,12.56
2022-10-05T19:07:01.555Z,12.47
2022-10-05T19:09:53.094Z,12.55
2022-10-05T19:12:42.328Z,12.51
2022-10-05T19:16:03.112Z,12.53
2022-10-05T19:19:04.171Z,12.27
2022-10-05T19:22:06.256Z,12.35
2022-10-05T19:25:17.158Z,12.09
2022-10-05T19:28:25.896Z,12.18
2022-10-05T19:31:12.318Z,12.09
2022-10-05T19:34:01.735Z,12.02
2022-10-05T19:36:53.668Z,11.96
2022-10-05T19:39:43.013Z,11.96
2022-10-05T19:42:45.095Z,11.87
2022-10-05T19:45:36.656Z,11.65
2022-10-05T19:48:30.540Z,11.74
2022-10-05T19:51:29.289Z,11.63
2022-10-05T19:54:29.042Z,11.69
2022-10-05T19:57:17.984Z,11.59
2022-10-05T20:00:04.647Z,11.64
2022-10-05T20:03:07.890Z,11.57
2022-10-05T20:06:02.433Z,11.50
2022-10-05T20:08:51.434Z,11.34
2022-10-05T20:11:49.796Z,11.29
2022-10-05T20:14:59.268Z,11.35
2022-10-05T20:18:04.604Z,11.28
2022-10-05T20:20:51.004Z,10.97
2022-10-05T20:23:38.135Z,11.19
2022-10-05T20:27:16.080Z,11.17
2022-10-05T20:30:03.461Z,11.08
2022-10-05T20:32:51.570Z,11.05
2022-10-05T20:35:38.135Z,10.93
2022-10-05T20:38:24.782Z,10.87
2022-10-05T20:41:11.374Z,10.85
2022-10-05T20:43:57.680Z,10.78
2022-10-05T20:46:46.143Z,10.85
2022-10-05T20:49:35.074Z,10.81
2022-10-05T20:52:23.139Z,10.74
2022-10-05T20:55:12.147Z,10.73
2022-10-05T20:57:58.989Z,10.62
2022-10-05T21:01:17.771Z,10.63
2022-10-05T21:04:06.789Z,10.53
2022-10-05T21:06:54.290Z,10.56
2022-10-05T21:09:42.324Z,10.47
2022-10-05T21:12:28.835Z,10.48
2022-10-05T21:15:15.199Z,10.55
2022-10-05T21:18:01.953Z,10.54
2022-10-05T21:20:49.975Z,10.52
2022-10-05T21:23:36.851Z,10.31
2022-10-05T21:26:23.734Z,10.34
2022-10-05T21:29:12.672Z,10.26
2022-10-05T21:31:59.368Z,10.29
2022-10-05T21:34:46.186Z,10.20
2022-10-05T21:37:32.475Z,10.23
2022-10-05T21:40:18.811Z,10.21
2022-10-05T21:43:05.081Z,10.17
2022-10-05T21:45:51.531Z,10.29
2022-10-05T21:48:39.564Z,10.17
2022-10-05T21:51:26.928Z,10.12
2022-10-05T21:54:17.262Z,10.27
2022-10-05T21:57:04.295Z,10.19
2022-10-05T21:59:50.543Z,9.89
2022-10-05T22:02:37.306Z,10.06
2022-10-05T22:05:24.074Z,10.04
2022-10-05T22:08:25.312Z,10.00
2022-10-05T22:11:14.585Z,9.89
2022-10-05T22:14:03.736Z,9.68
2022-10-05T22:16:50.371Z,9.90
2022-10-05T22:19:37.016Z,9.79
2022-10-05T22:22:23.664Z,9.85
2022-10-05T22:25:10.269Z,9.73
2022-10-05T22:27:56.728Z,9.71
2022-10-05T22:30:45.388Z,9.52
2022-10-05T22:33:31.885Z,9.82
2022-10-05T22:36:19.167Z,9.73
2022-10-05T22:39:05.489Z,9.75
2022-10-05T22:41:52.010Z,9.87
2022-10-05T22:44:39.056Z,9.68
2022-10-05T22:47:25.826Z,9.88
2022-10-05T22:50:12.246Z,9.61
2022-10-05T22:52:58.474Z,9.75
2022-10-05T22:55:44.845Z,9.51
2022-10-05T22:58:31.321Z,9.78
2022-10-05T23:01:19.647Z,9.89
2022-10-05T23:04:08.806Z,9.85
2022-10-05T23:06:55.230Z,9.76
2022-10-05T23:09:41.652Z,9.61
2022-10-05T23:12:27.960Z,9.61
2022-10-05T23:15:14.167Z,9.68
2022-10-05T23:18:01.055Z,9.60
2022-10-05T23:20:54.217Z,9.47
2022-10-05T23:23:42.821Z,9.48
2022-10-05T23:26:31.214Z,9.47
2022-10-05T23:29:17.703Z,9.42
2022-10-05T23:32:04.741Z,9.29
2022-10-05T23:34:51.186Z,9.44
2022-10-05T23:37:42.858Z,9.41
2022-10-05T23:40:29.565Z,9.40
2022-10-05T23:43:15.869Z,9.14
2022-10-05T23:46:03.794Z,9.31
2022-10-05T23:48:50.429Z,9.03
2022-10-05T23:51:37.158Z,9.30
2022-10-05T23:54:23.726Z,9.42
2022-10-05T23:57:09.942Z,9.41
2022-10-05T23:59:56.591Z,9.48
